sensor_id;sensor_type;location;lat;lon;timestamp;P1;durP1;ratioP1;P2;durP2;ratioP2
69678;SDS011;56915;52.046;4.854;2023-03-23T00:02:12;7.45;;;3.42;;
69678;SDS011;56915;52.046;4.854;2023-03-23T00:04:37;4.93;;;3.10;;
69678;SDS011;56915;52.046;4.854;2023-03-23T00:07:03;5.72;;;2.83;;
69678;SDS011;56915;52.046;4.854;2023-03-23T00:09:29;7.60;;;3.10;;
69678;SDS011;56915;52.046;4.854;2023-03-23T00:11:59;6.00;;;2.70;;
69678;SDS011;56915;52.046;4.854;2023-03-23T00:14:31;7.93;;;2.50;;
69678;SDS011;56915;52.046;4.854;2023-03-23T00:17:06;6.80;;;2.80;;
69678;SDS011;56915;52.046;4.854;2023-03-23T00:22:30;8.15;;;3.20;;
69678;SDS011;56915;52.046;4.854;2023-03-23T00:25:02;6.53;;;2.80;;
69678;SDS011;56915;52.046;4.854;2023-03-23T00:27:33;5.63;;;2.58;;
69678;SDS011;56915;52.046;4.854;2023-03-23T00:29:59;6.65;;;2.53;;
69678;SDS011;56915;52.046;4.854;2023-03-23T00:32:25;5.55;;;2.50;;
69678;SDS011;56915;52.046;4.854;2023-03-23T00:34:52;9.20;;;2.70;;
69678;SDS011;56915;52.046;4.854;2023-03-23T00:37:19;5.70;;;2.60;;
69678;SDS011;56915;52.046;4.854;2023-03-23T00:39:45;7.60;;;2.65;;
69678;SDS011;56915;52.046;4.854;2023-03-23T00:42:11;6.57;;;2.47;;
69678;SDS011;56915;52.046;4.854;2023-03-23T00:44:38;8.60;;;2.50;;
69678;SDS011;56915;52.046;4.854;2023-03-23T00:47:04;5.57;;;2.10;;
69678;SDS011;56915;52.046;4.854;2023-03-23T00:49:31;4.97;;;2.30;;
69678;SDS011;56915;52.046;4.854;2023-03-23T00:52:00;5.80;;;2.40;;
69678;SDS011;56915;52.046;4.854;2023-03-23T00:54:26;4.28;;;2.10;;
69678;SDS011;56915;52.046;4.854;2023-03-23T00:56:53;4.30;;;2.20;;
69678;SDS011;56915;52.046;4.854;2023-03-23T00:59:19;3.70;;;2.10;;
69678;SDS011;56915;52.046;4.854;2023-03-23T01:01:46;3.67;;;1.80;;
69678;SDS011;56915;52.046;4.854;2023-03-23T01:04:12;5.35;;;1.95;;
69678;SDS011;56915;52.046;4.854;2023-03-23T01:06:39;4.97;;;2.10;;
69678;SDS011;56915;52.046;4.854;2023-03-23T01:09:07;4.07;;;1.95;;
69678;SDS011;56915;52.046;4.854;2023-03-23T01:11:40;4.78;;;1.90;;
69678;SDS011;56915;52.046;4.854;2023-03-23T01:14:06;5.75;;;1.95;;
69678;SDS011;56915;52.046;4.854;2023-03-23T01:16:32;5.33;;;2.20;;
69678;SDS011;56915;52.046;4.854;2023-03-23T01:18:57;4.68;;;1.90;;
69678;SDS011;56915;52.046;4.854;2023-03-23T01:21:23;5.07;;;2.00;;
69678;SDS011;56915;52.046;4.854;2023-03-23T01:23:50;3.97;;;1.90;;
69678;SDS011;56915;52.046;4.854;2023-03-23T01:26:17;5.47;;;2.08;;
69678;SDS011;56915;52.046;4.854;2023-03-23T01:28:45;6.97;;;2.30;;
69678;SDS011;56915;52.046;4.854;2023-03-23T01:31:12;3.40;;;1.97;;
69678;SDS011;56915;52.046;4.854;2023-03-23T01:33:40;4.80;;;2.05;;
69678;SDS011;56915;52.046;4.854;2023-03-23T01:36:08;6.90;;;2.15;;
69678;SDS011;56915;52.046;4.854;2023-03-23T01:38:36;4.35;;;2.13;;
69678;SDS011;56915;52.046;4.854;2023-03-23T01:41:02;4.73;;;2.07;;
69678;SDS011;56915;52.046;4.854;2023-03-23T01:43:28;4.85;;;2.00;;
69678;SDS011;56915;52.046;4.854;2023-03-23T01:45:54;2.70;;;1.73;;
69678;SDS011;56915;52.046;4.854;2023-03-23T01:48:25;5.47;;;2.33;;
69678;SDS011;56915;52.046;4.854;2023-03-23T01:51:08;3.93;;;1.97;;
69678;SDS011;56915;52.046;4.854;2023-03-23T01:54:02;4.28;;;1.80;;
69678;SDS011;56915;52.046;4.854;2023-03-23T01:56:32;3.25;;;1.80;;
69678;SDS011;56915;52.046;4.854;2023-03-23T01:59:06;4.50;;;1.83;;
69678;SDS011;56915;52.046;4.854;2023-03-23T02:01:32;3.10;;;1.88;;
69678;SDS011;56915;52.046;4.854;2023-03-23T02:04:02;3.77;;;1.80;;
69678;SDS011;56915;52.046;4.854;2023-03-23T02:06:28;4.07;;;1.80;;
69678;SDS011;56915;52.046;4.854;2023-03-23T02:08:54;5.47;;;1.95;;
69678;SDS011;56915;52.046;4.854;2023-03-23T02:11:21;3.20;;;1.70;;
69678;SDS011;56915;52.046;4.854;2023-03-23T02:13:47;4.83;;;2.00;;
69678;SDS011;56915;52.046;4.854;2023-03-23T02:18:53;7.80;;;2.05;;
69678;SDS011;56915;52.046;4.854;2023-03-23T02:22:01;3.95;;;1.88;;
69678;SDS011;56915;52.046;4.854;2023-03-23T02:30:54;3.30;;;2.03;;
69678;SDS011;56915;52.046;4.854;2023-03-23T02:35:57;6.53;;;2.42;;
69678;SDS011;56915;52.046;4.854;2023-03-23T02:38:31;5.30;;;2.10;;
69678;SDS011;56915;52.046;4.854;2023-03-23T02:41:02;5.95;;;1.92;;
69678;SDS011;56915;52.046;4.854;2023-03-23T02:43:31;3.95;;;1.92;;
69678;SDS011;56915;52.046;4.854;2023-03-23T02:46:04;5.88;;;2.10;;
69678;SDS011;56915;52.046;4.854;2023-03-23T02:48:32;5.00;;;1.73;;
69678;SDS011;56915;52.046;4.854;2023-03-23T02:51:00;6.45;;;1.63;;
69678;SDS011;56915;52.046;4.854;2023-03-23T02:53:28;2.78;;;1.77;;
69678;SDS011;56915;52.046;4.854;2023-03-23T02:55:55;6.75;;;1.70;;
69678;SDS011;56915;52.046;4.854;2023-03-23T02:58:23;6.50;;;1.60;;
69678;SDS011;56915;52.046;4.854;2023-03-23T03:00:51;4.33;;;2.00;;
69678;SDS011;56915;52.046;4.854;2023-03-23T03:03:18;5.30;;;1.67;;
69678;SDS011;56915;52.046;4.854;2023-03-23T03:08:46;2.88;;;1.50;;
69678;SDS011;56915;52.046;4.854;2023-03-23T03:11:20;6.57;;;1.83;;
69678;SDS011;56915;52.046;4.854;2023-03-23T03:14:00;13.93;;;2.00;;
69678;SDS011;56915;52.046;4.854;2023-03-23T03:19:16;5.05;;;1.45;;
69678;SDS011;56915;52.046;4.854;2023-03-23T03:21:52;3.90;;;1.55;;
69678;SDS011;56915;52.046;4.854;2023-03-23T03:24:20;3.58;;;1.52;;
69678;SDS011;56915;52.046;4.854;2023-03-23T03:26:50;2.90;;;1.73;;
69678;SDS011;56915;52.046;4.854;2023-03-23T03:29:20;4.07;;;1.80;;
69678;SDS011;56915;52.046;4.854;2023-03-23T03:31:49;3.78;;;1.60;;
69678;SDS011;56915;52.046;4.854;2023-03-23T03:34:20;5.82;;;1.92;;
69678;SDS011;56915;52.046;4.854;2023-03-23T03:36:47;4.25;;;1.58;;
69678;SDS011;56915;52.046;4.854;2023-03-23T03:39:16;4.57;;;1.77;;
69678;SDS011;56915;52.046;4.854;2023-03-23T03:41:42;6.78;;;1.67;;
69678;SDS011;56915;52.046;4.854;2023-03-23T03:44:08;4.45;;;1.80;;
69678;SDS011;56915;52.046;4.854;2023-03-23T03:46:35;4.55;;;1.70;;
69678;SDS011;56915;52.046;4.854;2023-03-23T03:49:01;4.60;;;1.73;;
69678;SDS011;56915;52.046;4.854;2023-03-23T03:51:30;4.63;;;1.70;;
69678;SDS011;56915;52.046;4.854;2023-03-23T03:53:57;4.43;;;1.88;;
69678;SDS011;56915;52.046;4.854;2023-03-23T03:56:23;4.55;;;1.38;;
69678;SDS011;56915;52.046;4.854;2023-03-23T03:58:50;2.90;;;1.38;;
69678;SDS011;56915;52.046;4.854;2023-03-23T04:01:17;5.38;;;1.40;;
69678;SDS011;56915;52.046;4.854;2023-03-23T04:03:47;4.13;;;1.20;;
69678;SDS011;56915;52.046;4.854;2023-03-23T04:06:14;5.75;;;1.30;;
69678;SDS011;56915;52.046;4.854;2023-03-23T04:08:39;6.97;;;1.17;;
69678;SDS011;56915;52.046;4.854;2023-03-23T04:11:10;4.63;;;1.20;;
69678;SDS011;56915;52.046;4.854;2023-03-23T04:13:37;6.60;;;1.33;;
69678;SDS011;56915;52.046;4.854;2023-03-23T04:16:03;4.80;;;1.40;;
69678;SDS011;56915;52.046;4.854;2023-03-23T04:18:29;5.50;;;1.35;;
69678;SDS011;56915;52.046;4.854;2023-03-23T04:20:57;6.93;;;1.40;;
69678;SDS011;56915;52.046;4.854;2023-03-23T04:23:24;6.57;;;1.50;;
69678;SDS011;56915;52.046;4.854;2023-03-23T04:25:51;6.63;;;1.10;;
69678;SDS011;56915;52.046;4.854;2023-03-23T04:28:18;10.13;;;1.85;;
69678;SDS011;56915;52.046;4.854;2023-03-23T04:30:48;5.05;;;1.10;;
69678;SDS011;56915;52.046;4.854;2023-03-23T04:33:18;6.43;;;1.20;;
69678;SDS011;56915;52.046;4.854;2023-03-23T04:35:44;5.13;;;1.20;;
69678;SDS011;56915;52.046;4.854;2023-03-23T04:38:13;7.33;;;1.40;;
69678;SDS011;56915;52.046;4.854;2023-03-23T04:40:41;7.32;;;1.20;;
69678;SDS011;56915;52.046;4.854;2023-03-23T04:43:08;6.78;;;1.10;;
69678;SDS011;56915;52.046;4.854;2023-03-23T04:45:37;5.93;;;1.30;;
69678;SDS011;56915;52.046;4.854;2023-03-23T04:48:06;5.45;;;1.50;;
69678;SDS011;56915;52.046;4.854;2023-03-23T04:50:33;4.93;;;1.10;;
69678;SDS011;56915;52.046;4.854;2023-03-23T04:53:00;5.20;;;1.23;;
69678;SDS011;56915;52.046;4.854;2023-03-23T04:55:29;4.90;;;1.25;;
69678;SDS011;56915;52.046;4.854;2023-03-23T04:58:05;6.68;;;1.00;;
69678;SDS011;56915;52.046;4.854;2023-03-23T05:00:35;7.13;;;1.42;;
69678;SDS011;56915;52.046;4.854;2023-03-23T05:03:02;3.30;;;1.10;;
69678;SDS011;56915;52.046;4.854;2023-03-23T05:05:28;3.95;;;1.13;;
69678;SDS011;56915;52.046;4.854;2023-03-23T05:07:57;4.57;;;1.00;;
69678;SDS011;56915;52.046;4.854;2023-03-23T05:10:23;4.97;;;1.35;;
69678;SDS011;56915;52.046;4.854;2023-03-23T05:12:48;7.20;;;1.40;;
69678;SDS011;56915;52.046;4.854;2023-03-23T05:15:15;8.57;;;1.40;;
69678;SDS011;56915;52.046;4.854;2023-03-23T05:17:41;8.02;;;2.10;;
69678;SDS011;56915;52.046;4.854;2023-03-23T05:20:11;7.97;;;1.50;;
69678;SDS011;56915;52.046;4.854;2023-03-23T05:22:39;6.17;;;1.40;;
69678;SDS011;56915;52.046;4.854;2023-03-23T05:25:09;7.35;;;1.58;;
69678;SDS011;56915;52.046;4.854;2023-03-23T05:27:38;5.75;;;1.35;;
69678;SDS011;56915;52.046;4.854;2023-03-23T05:30:07;6.28;;;1.20;;
69678;SDS011;56915;52.046;4.854;2023-03-23T05:32:34;6.63;;;1.17;;
69678;SDS011;56915;52.046;4.854;2023-03-23T05:35:00;7.97;;;1.60;;
69678;SDS011;56915;52.046;4.854;2023-03-23T05:37:28;5.53;;;1.33;;
69678;SDS011;56915;52.046;4.854;2023-03-23T05:39:57;7.70;;;1.25;;
69678;SDS011;56915;52.046;4.854;2023-03-23T05:42:30;8.57;;;2.07;;
69678;SDS011;56915;52.046;4.854;2023-03-23T05:44:56;5.70;;;1.58;;
69678;SDS011;56915;52.046;4.854;2023-03-23T05:47:23;5.35;;;1.80;;
69678;SDS011;56915;52.046;4.854;2023-03-23T05:49:50;9.02;;;1.90;;
69678;SDS011;56915;52.046;4.854;2023-03-23T05:52:17;8.48;;;2.17;;
69678;SDS011;56915;52.046;4.854;2023-03-23T05:54:43;6.43;;;1.40;;
69678;SDS011;56915;52.046;4.854;2023-03-23T05:57:10;4.50;;;1.25;;
69678;SDS011;56915;52.046;4.854;2023-03-23T05:59:36;6.97;;;1.83;;
69678;SDS011;56915;52.046;4.854;2023-03-23T06:02:02;5.90;;;1.50;;
69678;SDS011;56915;52.046;4.854;2023-03-23T06:04:28;3.50;;;1.33;;
69678;SDS011;56915;52.046;4.854;2023-03-23T06:06:54;4.20;;;1.20;;
69678;SDS011;56915;52.046;4.854;2023-03-23T06:09:19;10.75;;;1.80;;
69678;SDS011;56915;52.046;4.854;2023-03-23T06:11:46;6.23;;;1.73;;
69678;SDS011;56915;52.046;4.854;2023-03-23T06:14:12;8.63;;;2.10;;
69678;SDS011;56915;52.046;4.854;2023-03-23T06:16:38;6.32;;;1.55;;
69678;SDS011;56915;52.046;4.854;2023-03-23T06:19:04;6.63;;;1.90;;
69678;SDS011;56915;52.046;4.854;2023-03-23T06:21:30;7.55;;;2.28;;
69678;SDS011;56915;52.046;4.854;2023-03-23T06:23:57;9.20;;;1.90;;
69678;SDS011;56915;52.046;4.854;2023-03-23T06:26:26;10.30;;;2.30;;
69678;SDS011;56915;52.046;4.854;2023-03-23T06:28:56;6.82;;;1.70;;
69678;SDS011;56915;52.046;4.854;2023-03-23T06:31:22;7.53;;;1.73;;
69678;SDS011;56915;52.046;4.854;2023-03-23T06:33:49;10.90;;;2.38;;
69678;SDS011;56915;52.046;4.854;2023-03-23T06:36:15;7.28;;;1.90;;
69678;SDS011;56915;52.046;4.854;2023-03-23T06:38:41;10.33;;;2.33;;
69678;SDS011;56915;52.046;4.854;2023-03-23T06:41:07;8.05;;;1.70;;
69678;SDS011;56915;52.046;4.854;2023-03-23T06:43:34;7.68;;;2.45;;
69678;SDS011;56915;52.046;4.854;2023-03-23T06:46:02;8.65;;;3.45;;
69678;SDS011;56915;52.046;4.854;2023-03-23T06:48:28;10.10;;;4.32;;
69678;SDS011;56915;52.046;4.854;2023-03-23T06:50:54;8.20;;;3.37;;
69678;SDS011;56915;52.046;4.854;2023-03-23T06:53:20;11.75;;;2.58;;
69678;SDS011;56915;52.046;4.854;2023-03-23T06:55:46;9.03;;;3.20;;
69678;SDS011;56915;52.046;4.854;2023-03-23T06:58:11;13.82;;;3.20;;
69678;SDS011;56915;52.046;4.854;2023-03-23T07:00:38;6.43;;;3.05;;
69678;SDS011;56915;52.046;4.854;2023-03-23T07:03:05;8.00;;;2.03;;
69678;SDS011;56915;52.046;4.854;2023-03-23T07:05:35;6.57;;;1.90;;
69678;SDS011;56915;52.046;4.854;2023-03-23T07:08:01;4.22;;;1.48;;
69678;SDS011;56915;52.046;4.854;2023-03-23T07:10:28;8.32;;;1.80;;
69678;SDS011;56915;52.046;4.854;2023-03-23T07:12:54;6.72;;;1.27;;
69678;SDS011;56915;52.046;4.854;2023-03-23T07:17:50;7.13;;;1.60;;
69678;SDS011;56915;52.046;4.854;2023-03-23T07:20:20;6.53;;;1.50;;
69678;SDS011;56915;52.046;4.854;2023-03-23T07:22:45;10.57;;;2.10;;
69678;SDS011;56915;52.046;4.854;2023-03-23T07:25:11;4.90;;;2.20;;
69678;SDS011;56915;52.046;4.854;2023-03-23T07:27:37;7.90;;;2.30;;
69678;SDS011;56915;52.046;4.854;2023-03-23T07:30:03;9.77;;;1.60;;
69678;SDS011;56915;52.046;4.854;2023-03-23T07:32:30;9.07;;;2.05;;
69678;SDS011;56915;52.046;4.854;2023-03-23T07:34:56;8.05;;;2.38;;
69678;SDS011;56915;52.046;4.854;2023-03-23T07:37:22;7.75;;;2.08;;
69678;SDS011;56915;52.046;4.854;2023-03-23T07:39:48;8.93;;;2.30;;
69678;SDS011;56915;52.046;4.854;2023-03-23T07:42:13;6.45;;;1.90;;
69678;SDS011;56915;52.046;4.854;2023-03-23T07:44:39;7.97;;;1.80;;
69678;SDS011;56915;52.046;4.854;2023-03-23T07:47:05;10.68;;;1.70;;
69678;SDS011;56915;52.046;4.854;2023-03-23T07:49:31;5.72;;;1.83;;
69678;SDS011;56915;52.046;4.854;2023-03-23T07:51:57;6.20;;;1.60;;
69678;SDS011;56915;52.046;4.854;2023-03-23T07:54:23;6.70;;;2.05;;
69678;SDS011;56915;52.046;4.854;2023-03-23T07:56:49;9.32;;;2.90;;
69678;SDS011;56915;52.046;4.854;2023-03-23T07:59:15;9.23;;;1.90;;
69678;SDS011;56915;52.046;4.854;2023-03-23T08:01:42;9.27;;;2.27;;
69678;SDS011;56915;52.046;4.854;2023-03-23T08:04:07;8.70;;;2.20;;
69678;SDS011;56915;52.046;4.854;2023-03-23T08:06:34;8.32;;;1.70;;
69678;SDS011;56915;52.046;4.854;2023-03-23T08:09:00;8.98;;;1.63;;
69678;SDS011;56915;52.046;4.854;2023-03-23T08:11:31;5.53;;;1.40;;
69678;SDS011;56915;52.046;4.854;2023-03-23T08:13:58;5.63;;;2.20;;
69678;SDS011;56915;52.046;4.854;2023-03-23T08:16:24;6.55;;;2.45;;
69678;SDS011;56915;52.046;4.854;2023-03-23T08:18:50;7.70;;;2.73;;
69678;SDS011;56915;52.046;4.854;2023-03-23T08:21:17;17.95;;;8.50;;
69678;SDS011;56915;52.046;4.854;2023-03-23T08:23:42;10.25;;;3.42;;
69678;SDS011;56915;52.046;4.854;2023-03-23T08:26:08;10.50;;;3.03;;
69678;SDS011;56915;52.046;4.854;2023-03-23T08:28:34;9.87;;;2.40;;
69678;SDS011;56915;52.046;4.854;2023-03-23T08:31:12;7.53;;;2.10;;
69678;SDS011;56915;52.046;4.854;2023-03-23T08:33:39;8.60;;;2.00;;
69678;SDS011;56915;52.046;4.854;2023-03-23T08:36:06;7.72;;;2.00;;
69678;SDS011;56915;52.046;4.854;2023-03-23T08:38:34;10.65;;;2.30;;
69678;SDS011;56915;52.046;4.854;2023-03-23T08:41:00;10.77;;;2.03;;
69678;SDS011;56915;52.046;4.854;2023-03-23T08:43:28;5.40;;;1.58;;
69678;SDS011;56915;52.046;4.854;2023-03-23T08:45:54;6.22;;;2.10;;
69678;SDS011;56915;52.046;4.854;2023-03-23T08:48:20;9.23;;;2.17;;
69678;SDS011;56915;52.046;4.854;2023-03-23T08:50:47;11.68;;;2.25;;
69678;SDS011;56915;52.046;4.854;2023-03-23T08:53:14;9.13;;;1.98;;
69678;SDS011;56915;52.046;4.854;2023-03-23T08:55:40;11.20;;;1.90;;
69678;SDS011;56915;52.046;4.854;2023-03-23T08:58:07;10.70;;;2.40;;
69678;SDS011;56915;52.046;4.854;2023-03-23T09:00:34;8.23;;;1.98;;
69678;SDS011;56915;52.046;4.854;2023-03-23T09:03:00;8.57;;;1.83;;
69678;SDS011;56915;52.046;4.854;2023-03-23T09:05:27;10.80;;;2.25;;
69678;SDS011;56915;52.046;4.854;2023-03-23T09:07:55;12.57;;;1.80;;
69678;SDS011;56915;52.046;4.854;2023-03-23T09:10:24;10.55;;;2.10;;
69678;SDS011;56915;52.046;4.854;2023-03-23T09:12:51;10.15;;;1.63;;
69678;SDS011;56915;52.046;4.854;2023-03-23T09:15:18;9.77;;;2.42;;
69678;SDS011;56915;52.046;4.854;2023-03-23T09:17:45;9.35;;;2.20;;
69678;SDS011;56915;52.046;4.854;2023-03-23T09:20:14;12.53;;;1.90;;
69678;SDS011;56915;52.046;4.854;2023-03-23T09:22:43;7.43;;;1.73;;
69678;SDS011;56915;52.046;4.854;2023-03-23T09:25:11;10.40;;;1.90;;
69678;SDS011;56915;52.046;4.854;2023-03-23T09:27:40;6.68;;;1.20;;
69678;SDS011;56915;52.046;4.854;2023-03-23T09:30:10;7.93;;;1.90;;
69678;SDS011;56915;52.046;4.854;2023-03-23T09:32:38;7.90;;;1.77;;
69678;SDS011;56915;52.046;4.854;2023-03-23T09:35:05;6.72;;;1.48;;
69678;SDS011;56915;52.046;4.854;2023-03-23T09:37:34;12.15;;;1.85;;
69678;SDS011;56915;52.046;4.854;2023-03-23T09:40:03;7.30;;;1.60;;
69678;SDS011;56915;52.046;4.854;2023-03-23T09:48:03;8.00;;;1.45;;
69678;SDS011;56915;52.046;4.854;2023-03-23T09:50:51;8.60;;;1.65;;
69678;SDS011;56915;52.046;4.854;2023-03-23T09:53:33;10.05;;;1.73;;
69678;SDS011;56915;52.046;4.854;2023-03-23T09:56:05;9.13;;;1.58;;
69678;SDS011;56915;52.046;4.854;2023-03-23T09:58:45;9.03;;;1.40;;
69678;SDS011;56915;52.046;4.854;2023-03-23T10:01:20;12.85;;;1.58;;
69678;SDS011;56915;52.046;4.854;2023-03-23T10:03:53;6.40;;;1.35;;
69678;SDS011;56915;52.046;4.854;2023-03-23T10:06:41;9.88;;;2.05;;
69678;SDS011;56915;52.046;4.854;2023-03-23T10:09:08;5.63;;;1.57;;
69678;SDS011;56915;52.046;4.854;2023-03-23T10:11:54;7.95;;;1.52;;
69678;SDS011;56915;52.046;4.854;2023-03-23T10:14:27;9.02;;;2.00;;
69678;SDS011;56915;52.046;4.854;2023-03-23T10:25:28;9.73;;;2.33;;
69678;SDS011;56915;52.046;4.854;2023-03-23T10:27:59;11.07;;;1.80;;
69678;SDS011;56915;52.046;4.854;2023-03-23T10:30:43;11.40;;;1.58;;
69678;SDS011;56915;52.046;4.854;2023-03-23T10:33:15;11.80;;;1.90;;
69678;SDS011;56915;52.046;4.854;2023-03-23T10:38:41;8.07;;;1.60;;
69678;SDS011;56915;52.046;4.854;2023-03-23T10:41:11;9.20;;;1.90;;
69678;SDS011;56915;52.046;4.854;2023-03-23T10:43:41;10.02;;;1.98;;
69678;SDS011;56915;52.046;4.854;2023-03-23T10:49:07;10.77;;;1.73;;
69678;SDS011;56915;52.046;4.854;2023-03-23T10:51:39;6.03;;;1.48;;
69678;SDS011;56915;52.046;4.854;2023-03-23T10:54:07;11.95;;;1.90;;
69678;SDS011;56915;52.046;4.854;2023-03-23T10:56:37;9.40;;;1.90;;
69678;SDS011;56915;52.046;4.854;2023-03-23T10:59:15;7.20;;;1.70;;
69678;SDS011;56915;52.046;4.854;2023-03-23T11:01:48;7.07;;;1.40;;
69678;SDS011;56915;52.046;4.854;2023-03-23T11:04:16;13.27;;;1.85;;
69678;SDS011;56915;52.046;4.854;2023-03-23T11:06:48;9.75;;;2.00;;
69678;SDS011;56915;52.046;4.854;2023-03-23T11:09:21;9.52;;;1.55;;
69678;SDS011;56915;52.046;4.854;2023-03-23T11:12:00;9.30;;;1.73;;
69678;SDS011;56915;52.046;4.854;2023-03-23T11:14:28;8.65;;;1.50;;
69678;SDS011;56915;52.046;4.854;2023-03-23T11:16:56;8.30;;;1.70;;
69678;SDS011;56915;52.046;4.854;2023-03-23T11:19:30;10.57;;;1.75;;
69678;SDS011;56915;52.046;4.854;2023-03-23T11:24:32;10.10;;;1.58;;
69678;SDS011;56915;52.046;4.854;2023-03-23T11:27:07;10.32;;;2.00;;
69678;SDS011;56915;52.046;4.854;2023-03-23T11:29:34;6.82;;;1.58;;
69678;SDS011;56915;52.046;4.854;2023-03-23T11:32:09;10.00;;;1.90;;
69678;SDS011;56915;52.046;4.854;2023-03-23T11:34:41;13.40;;;1.80;;
69678;SDS011;56915;52.046;4.854;2023-03-23T11:37:08;9.07;;;1.60;;
69678;SDS011;56915;52.046;4.854;2023-03-23T11:39:58;10.55;;;1.80;;
69678;SDS011;56915;52.046;4.854;2023-03-23T11:42:34;9.15;;;1.65;;
69678;SDS011;56915;52.046;4.854;2023-03-23T11:50:54;10.53;;;1.70;;
69678;SDS011;56915;52.046;4.854;2023-03-23T11:56:37;11.30;;;1.55;;
69678;SDS011;56915;52.046;4.854;2023-03-23T11:59:12;7.20;;;1.20;;
69678;SDS011;56915;52.046;4.854;2023-03-23T12:04:33;8.25;;;1.60;;
69678;SDS011;56915;52.046;4.854;2023-03-23T12:12:46;5.10;;;1.20;;
69678;SDS011;56915;52.046;4.854;2023-03-23T12:23:26;6.45;;;1.30;;
69678;SDS011;56915;52.046;4.854;2023-03-23T12:26:20;5.05;;;1.30;;
69678;SDS011;56915;52.046;4.854;2023-03-23T12:31:45;7.03;;;1.10;;
69678;SDS011;56915;52.046;4.854;2023-03-23T12:42:02;6.28;;;1.20;;
69678;SDS011;56915;52.046;4.854;2023-03-23T12:44:54;7.13;;;1.57;;
69678;SDS011;56915;52.046;4.854;2023-03-23T12:47:39;5.45;;;1.00;;
69678;SDS011;56915;52.046;4.854;2023-03-23T12:50:15;4.35;;;0.90;;
69678;SDS011;56915;52.046;4.854;2023-03-23T12:53:03;7.35;;;1.45;;
69678;SDS011;56915;52.046;4.854;2023-03-23T12:55:53;6.55;;;1.10;;
69678;SDS011;56915;52.046;4.854;2023-03-23T12:58:40;5.63;;;1.17;;
69678;SDS011;56915;52.046;4.854;2023-03-23T13:01:21;6.93;;;1.35;;
69678;SDS011;56915;52.046;4.854;2023-03-23T13:03:53;6.13;;;1.33;;
69678;SDS011;56915;52.046;4.854;2023-03-23T13:11:41;4.40;;;1.10;;
69678;SDS011;56915;52.046;4.854;2023-03-23T13:23:14;4.65;;;1.48;;
69678;SDS011;56915;52.046;4.854;2023-03-23T13:25:30;4.32;;;1.00;;
69678;SDS011;56915;52.046;4.854;2023-03-23T13:28:21;5.38;;;1.38;;
69678;SDS011;56915;52.046;4.854;2023-03-23T13:30:55;7.68;;;1.40;;
69678;SDS011;56915;52.046;4.854;2023-03-23T13:33:23;8.37;;;1.40;;
69678;SDS011;56915;52.046;4.854;2023-03-23T13:35:50;7.43;;;1.15;;
69678;SDS011;56915;52.046;4.854;2023-03-23T13:38:26;6.53;;;1.33;;
69678;SDS011;56915;52.046;4.854;2023-03-23T13:40:53;6.20;;;1.30;;
69678;SDS011;56915;52.046;4.854;2023-03-23T13:43:28;7.82;;;1.40;;
69678;SDS011;56915;52.046;4.854;2023-03-23T13:46:06;10.02;;;1.15;;
69678;SDS011;56915;52.046;4.854;2023-03-23T13:48:40;9.20;;;1.33;;
69678;SDS011;56915;52.046;4.854;2023-03-23T13:51:23;10.07;;;1.40;;
69678;SDS011;56915;52.046;4.854;2023-03-23T14:02:31;10.80;;;1.80;;
69678;SDS011;56915;52.046;4.854;2023-03-23T14:05:08;6.43;;;1.40;;
69678;SDS011;56915;52.046;4.854;2023-03-23T14:08:10;6.25;;;1.20;;
69678;SDS011;56915;52.046;4.854;2023-03-23T14:10:39;7.10;;;1.10;;
69678;SDS011;56915;52.046;4.854;2023-03-23T14:16:19;5.75;;;1.30;;
69678;SDS011;56915;52.046;4.854;2023-03-23T14:18:55;8.35;;;1.40;;
69678;SDS011;56915;52.046;4.854;2023-03-23T14:21:38;7.53;;;1.40;;
69678;SDS011;56915;52.046;4.854;2023-03-23T14:24:16;7.20;;;1.10;;
69678;SDS011;56915;52.046;4.854;2023-03-23T14:26:45;6.93;;;1.20;;
69678;SDS011;56915;52.046;4.854;2023-03-23T14:29:12;7.05;;;1.05;;
69678;SDS011;56915;52.046;4.854;2023-03-23T14:31:38;12.35;;;1.80;;
69678;SDS011;56915;52.046;4.854;2023-03-23T14:34:15;7.82;;;1.35;;
69678;SDS011;56915;52.046;4.854;2023-03-23T14:36:45;8.77;;;1.80;;
69678;SDS011;56915;52.046;4.854;2023-03-23T14:41:43;11.75;;;1.67;;
69678;SDS011;56915;52.046;4.854;2023-03-23T14:44:26;9.00;;;1.73;;
69678;SDS011;56915;52.046;4.854;2023-03-23T14:46:56;7.80;;;1.20;;
69678;SDS011;56915;52.046;4.854;2023-03-23T14:49:30;7.90;;;1.38;;
69678;SDS011;56915;52.046;4.854;2023-03-23T14:52:02;5.55;;;1.20;;
69678;SDS011;56915;52.046;4.854;2023-03-23T14:54:42;9.18;;;1.20;;
69678;SDS011;56915;52.046;4.854;2023-03-23T14:57:16;5.97;;;1.25;;
69678;SDS011;56915;52.046;4.854;2023-03-23T14:59:53;7.00;;;1.17;;
69678;SDS011;56915;52.046;4.854;2023-03-23T15:02:23;5.25;;;1.13;;
69678;SDS011;56915;52.046;4.854;2023-03-23T15:05:26;6.90;;;1.20;;
69678;SDS011;56915;52.046;4.854;2023-03-23T15:07:55;8.05;;;1.30;;
69678;SDS011;56915;52.046;4.854;2023-03-23T15:10:27;7.63;;;1.27;;
69678;SDS011;56915;52.046;4.854;2023-03-23T15:12:52;8.30;;;1.40;;
69678;SDS011;56915;52.046;4.854;2023-03-23T15:15:29;6.18;;;1.27;;
69678;SDS011;56915;52.046;4.854;2023-03-23T15:17:57;7.60;;;1.80;;
69678;SDS011;56915;52.046;4.854;2023-03-23T15:23:08;9.25;;;2.15;;
69678;SDS011;56915;52.046;4.854;2023-03-23T15:25:40;8.75;;;1.92;;
69678;SDS011;56915;52.046;4.854;2023-03-23T15:28:18;6.40;;;1.48;;
69678;SDS011;56915;52.046;4.854;2023-03-23T15:30:50;7.68;;;2.08;;
69678;SDS011;56915;52.046;4.854;2023-03-23T15:33:18;7.22;;;1.88;;
69678;SDS011;56915;52.046;4.854;2023-03-23T15:35:51;10.73;;;2.30;;
69678;SDS011;56915;52.046;4.854;2023-03-23T15:38:31;8.48;;;2.03;;
69678;SDS011;56915;52.046;4.854;2023-03-23T15:41:06;8.02;;;1.67;;
69678;SDS011;56915;52.046;4.854;2023-03-23T15:43:53;7.95;;;1.70;;
69678;SDS011;56915;52.046;4.854;2023-03-23T15:46:24;10.15;;;1.70;;
69678;SDS011;56915;52.046;4.854;2023-03-23T15:51:25;7.60;;;1.88;;
69678;SDS011;56915;52.046;4.854;2023-03-23T15:53:53;7.72;;;1.60;;
69678;SDS011;56915;52.046;4.854;2023-03-23T15:56:20;5.78;;;1.48;;
69678;SDS011;56915;52.046;4.854;2023-03-23T15:58:46;8.90;;;1.80;;
69678;SDS011;56915;52.046;4.854;2023-03-23T16:01:18;10.80;;;2.08;;
69678;SDS011;56915;52.046;4.854;2023-03-23T16:06:23;9.45;;;1.80;;
69678;SDS011;56915;52.046;4.854;2023-03-23T16:08:52;6.43;;;1.73;;
69678;SDS011;56915;52.046;4.854;2023-03-23T16:11:20;10.63;;;2.15;;
69678;SDS011;56915;52.046;4.854;2023-03-23T16:13:48;9.15;;;1.88;;
69678;SDS011;56915;52.046;4.854;2023-03-23T16:16:17;7.55;;;1.80;;
69678;SDS011;56915;52.046;4.854;2023-03-23T16:18:47;11.98;;;2.05;;
69678;SDS011;56915;52.046;4.854;2023-03-23T16:21:14;8.52;;;2.00;;
69678;SDS011;56915;52.046;4.854;2023-03-23T16:23:41;9.43;;;1.85;;
69678;SDS011;56915;52.046;4.854;2023-03-23T16:26:09;9.93;;;1.95;;
69678;SDS011;56915;52.046;4.854;2023-03-23T16:28:38;11.80;;;2.13;;
69678;SDS011;56915;52.046;4.854;2023-03-23T16:31:04;14.05;;;2.38;;
69678;SDS011;56915;52.046;4.854;2023-03-23T16:33:31;9.48;;;1.70;;
69678;SDS011;56915;52.046;4.854;2023-03-23T16:35:58;13.63;;;2.80;;
69678;SDS011;56915;52.046;4.854;2023-03-23T16:38:26;11.63;;;2.17;;
69678;SDS011;56915;52.046;4.854;2023-03-23T16:40:52;12.00;;;2.00;;
69678;SDS011;56915;52.046;4.854;2023-03-23T16:43:20;11.18;;;2.03;;
69678;SDS011;56915;52.046;4.854;2023-03-23T16:45:47;6.95;;;1.67;;
69678;SDS011;56915;52.046;4.854;2023-03-23T16:48:15;11.02;;;1.80;;
69678;SDS011;56915;52.046;4.854;2023-03-23T16:50:42;9.65;;;1.70;;
69678;SDS011;56915;52.046;4.854;2023-03-23T16:53:10;8.43;;;1.77;;
69678;SDS011;56915;52.046;4.854;2023-03-23T16:55:37;11.07;;;1.80;;
69678;SDS011;56915;52.046;4.854;2023-03-23T16:58:05;12.57;;;1.98;;
69678;SDS011;56915;52.046;4.854;2023-03-23T17:00:42;6.78;;;1.70;;